Airport View

Enter AWOS ICAO identifier for current METAR.

ex. KFNL

KCWI 262256Z AUTO 32016KT 10SM OVC043 M01/M08 A3017 RMK AO2 SLP228 T10111078 FZRANO

26 Feb 2020 23:02

Frequency: 125.525

Phone: 563-243-8934

Other Area AWOS: KSFY - KDVN - KMLI - KSQI

TAF KMLI 261723Z 2618/2718 34015G19KT P6SM OVC040 FM262300 33013KT P6SM BKN035 FM270100 32011KT P6SM BKN050